createdAt,value
2019-05-11T15:13:15.500Z,96282.00
2019-05-11T15:15:45.744Z,96273.00
2019-05-11T15:18:17.761Z,96277.00
2019-05-11T15:20:48.146Z,96278.00
2019-05-11T15:23:18.466Z,96276.00
2019-05-11T15:25:48.910Z,96269.00
2019-05-11T15:28:19.267Z,96260.00
2019-05-11T15:30:50.539Z,96267.00
2019-05-11T15:33:20.881Z,96281.00
2019-05-11T15:35:51.188Z,96270.00
2019-05-11T15:38:21.503Z,96272.00
2019-05-11T15:40:51.820Z,96281.00
2019-05-11T15:43:22.142Z,96295.00
2019-05-11T15:45:52.493Z,96299.00
2019-05-11T15:48:22.811Z,96313.00
2019-05-11T15:50:53.119Z,96333.00
2019-05-11T15:53:23.441Z,96334.00
2019-05-11T15:55:54.049Z,96334.00
2019-05-11T15:58:24.303Z,96329.00
2019-05-11T16:00:54.614Z,96354.00
2019-05-11T16:03:24.936Z,96337.00
2019-05-11T16:05:55.263Z,96331.00
2019-05-11T16:08:25.601Z,96328.00
2019-05-11T16:10:57.825Z,96329.00
2019-05-11T16:13:28.596Z,96336.00
2019-05-11T16:15:59.875Z,96344.00
2019-05-11T16:18:30.225Z,96350.00
2019-05-11T16:21:00.522Z,96331.00
2019-05-11T16:23:30.935Z,96340.00
2019-05-11T16:26:01.239Z,96333.00
2019-05-11T16:28:31.532Z,96337.00
2019-05-11T16:31:02.117Z,96339.00
2019-05-11T16:33:32.453Z,96339.00
2019-05-11T16:36:02.762Z,96341.00
2019-05-11T16:38:33.024Z,96334.00
2019-05-11T16:41:03.442Z,96344.00
2019-05-11T16:43:33.724Z,96353.00
2019-05-11T16:46:03.983Z,96345.00
2019-05-11T16:48:34.294Z,96348.00
2019-05-11T16:51:04.556Z,96361.00
2019-05-11T16:53:35.361Z,96356.00
2019-05-11T16:56:08.445Z,96359.00
2019-05-11T16:58:41.058Z,96376.00
2019-05-11T17:01:10.364Z,96382.00
2019-05-11T17:03:40.623Z,96387.00
2019-05-11T17:06:10.883Z,96405.00
2019-05-11T17:08:41.141Z,96407.00
2019-05-11T17:11:11.395Z,96411.00
2019-05-11T17:13:41.739Z,96414.00
2019-05-11T17:16:12.059Z,96432.00
2019-05-11T17:18:42.476Z,96455.00
2019-05-11T17:21:12.765Z,96475.00
2019-05-11T17:23:43.134Z,96475.00
2019-05-11T17:26:13.486Z,96488.00
2019-05-11T17:28:43.808Z,96486.00
2019-05-11T17:31:14.105Z,96495.00
2019-05-11T17:33:44.437Z,96486.00
2019-05-11T17:36:14.763Z,96503.00
2019-05-11T17:38:45.109Z,96506.00
2019-05-11T17:41:15.428Z,96506.00
2019-05-11T17:43:47.827Z,96509.00
2019-05-11T17:46:18.447Z,96523.00
2019-05-11T17:48:48.873Z,96524.00
2019-05-11T17:51:22.527Z,96526.00
2019-05-11T17:53:51.218Z,96523.00
2019-05-11T17:56:22.507Z,96540.00
2019-05-11T17:58:52.884Z,96532.00
2019-05-11T18:01:23.232Z,96534.00
2019-05-11T18:03:53.558Z,96530.00
2019-05-11T18:06:23.892Z,96539.00
2019-05-11T18:08:54.221Z,96529.00
2019-05-11T18:11:24.616Z,96548.00
2019-05-11T18:13:54.990Z,96548.00
2019-05-11T18:16:25.339Z,96547.00
2019-05-11T18:18:55.635Z,96552.00
2019-05-11T18:21:27.970Z,96558.00
2019-05-11T18:23:57.964Z,96556.00
2019-05-11T18:26:28.685Z,96551.00
2019-05-11T18:28:59.012Z,96544.00
2019-05-11T18:31:29.358Z,96557.00
2019-05-11T18:33:59.661Z,96545.00
2019-05-11T18:36:29.983Z,96544.00
2019-05-11T18:39:00.298Z,96548.00
2019-05-11T18:41:30.701Z,96555.00
2019-05-11T18:44:01.018Z,96558.00
2019-05-11T18:46:33.496Z,96560.00
2019-05-11T18:49:03.805Z,96566.00
2019-05-11T18:51:34.155Z,96563.00
2019-05-11T18:54:04.454Z,96565.00
2019-05-11T18:56:34.765Z,96563.00
2019-05-11T18:59:05.071Z,96571.00
2019-05-11T19:01:37.842Z,96566.00
2019-05-11T19:04:07.919Z,96576.00
2019-05-11T19:06:39.296Z,96575.00
2019-05-11T19:09:10.585Z,96582.00
2019-05-11T19:11:42.795Z,96581.00
2019-05-11T19:14:13.055Z,96582.00
2019-05-11T19:16:43.384Z,96584.00
2019-05-11T19:19:13.727Z,96584.00
2019-05-11T19:21:44.076Z,96584.00
2019-05-11T19:24:14.394Z,96588.00
2019-05-11T19:26:44.719Z,96593.00
2019-05-11T19:29:15.012Z,96587.00
2019-05-11T19:31:47.522Z,96587.00
2019-05-11T19:34:17.680Z,96591.00
2019-05-11T19:36:49.358Z,96586.00
2019-05-11T19:39:19.659Z,96587.00
2019-05-11T19:41:50.078Z,96588.00
2019-05-11T19:44:20.388Z,96588.00
2019-05-11T19:46:50.822Z,96594.00
2019-05-11T19:49:21.148Z,96581.00
2019-05-11T19:51:52.468Z,96593.00
2019-05-11T19:54:22.969Z,96591.00
2019-05-11T19:56:53.294Z,96596.00
2019-05-11T19:59:23.618Z,96597.00
2019-05-11T20:01:57.133Z,96599.00
2019-05-11T20:04:28.122Z,96606.00
2019-05-11T20:06:58.324Z,96598.00
2019-05-11T20:09:29.263Z,96604.00
2019-05-11T20:11:59.611Z,96602.00
2019-05-11T20:14:29.908Z,96613.00
2019-05-11T20:17:00.233Z,96597.00
2019-05-11T20:19:30.623Z,96612.00
2019-05-11T20:22:00.966Z,96608.00
2019-05-11T20:24:31.283Z,96607.00
2019-05-11T20:27:01.618Z,96601.00
2019-05-11T20:29:32.012Z,96613.00
2019-05-11T20:32:02.340Z,96615.00
2019-05-11T20:34:32.653Z,96608.00
2019-05-11T20:37:02.975Z,96614.00
2019-05-11T20:39:33.372Z,96614.00
2019-05-11T20:42:03.985Z,96621.00
2019-05-11T20:44:34.283Z,96628.00
2019-05-11T20:47:04.645Z,96624.00
2019-05-11T20:49:34.936Z,96620.00
2019-05-11T20:52:05.407Z,96620.00
2019-05-11T20:54:35.726Z,96620.00
2019-05-11T20:57:06.033Z,96619.00
2019-05-11T20:59:38.174Z,96615.00
2019-05-11T21:02:09.313Z,96614.00
2019-05-11T21:04:40.867Z,96624.00
2019-05-11T21:07:12.164Z,96620.00
2019-05-11T21:09:42.475Z,96632.00
2019-05-11T21:12:12.817Z,96630.00
2019-05-11T21:14:43.553Z,96630.00
2019-05-11T21:17:13.897Z,96643.00
2019-05-11T21:19:47.791Z,96645.00
2019-05-11T21:22:17.913Z,96647.00
2019-05-11T21:24:49.651Z,96646.00
2019-05-11T21:27:20.319Z,96660.00
2019-05-11T21:29:51.655Z,96648.00
2019-05-11T21:32:22.004Z,96657.00
2019-05-11T21:34:52.525Z,96668.00
2019-05-11T21:37:22.871Z,96675.00
2019-05-11T21:39:53.202Z,96677.00
2019-05-11T21:42:23.538Z,96677.00
2019-05-11T21:44:53.861Z,96674.00
2019-05-11T21:47:24.182Z,96679.00
2019-05-11T21:49:54.515Z,96692.00
2019-05-11T21:52:24.822Z,96695.00
2019-05-11T21:54:55.127Z,96703.00
2019-05-11T21:57:27.729Z,96701.00
2019-05-11T22:00:00.570Z,96704.00
2019-05-11T22:02:29.685Z,96705.00
2019-05-11T22:05:03.150Z,96714.00
2019-05-11T22:07:33.074Z,96711.00
2019-05-11T22:10:09.214Z,96715.00
2019-05-11T22:12:40.015Z,96715.00
2019-05-11T22:15:11.423Z,96718.00
2019-05-11T22:17:41.865Z,96718.00
2019-05-11T22:20:12.243Z,96719.00
2019-05-11T22:22:42.573Z,96718.00
2019-05-11T22:25:12.950Z,96716.00
2019-05-11T22:27:43.307Z,96718.00
2019-05-11T22:30:14.215Z,96721.00
2019-05-11T22:32:44.555Z,96723.00
2019-05-11T22:35:14.937Z,96729.00
2019-05-11T22:37:45.257Z,96721.00
2019-05-11T22:40:15.775Z,96730.00
2019-05-11T22:42:47.059Z,96731.00
2019-05-11T22:45:18.910Z,96728.00
2019-05-11T22:47:49.243Z,96732.00
2019-05-11T22:50:19.567Z,96730.00
2019-05-11T22:52:50.077Z,96733.00
2019-05-11T22:55:20.408Z,96732.00
2019-05-11T22:57:50.763Z,96734.00
2019-05-11T23:00:40.174Z,96730.00
2019-05-11T23:03:11.046Z,96732.00
2019-05-11T23:05:43.205Z,96727.00
2019-05-11T23:08:13.620Z,96721.00
2019-05-11T23:10:43.991Z,96723.00
2019-05-11T23:13:14.304Z,96734.00
2019-05-11T23:15:44.602Z,96735.00
2019-05-11T23:18:14.937Z,96739.00
2019-05-11T23:20:47.482Z,96724.00
2019-05-11T23:23:17.831Z,96730.00
2019-05-11T23:25:48.695Z,96745.00
2019-05-11T23:28:19.034Z,96744.00
2019-05-11T23:30:49.449Z,96743.00
2019-05-11T23:33:19.734Z,96733.00
2019-05-11T23:35:50.143Z,96733.00
2019-05-11T23:38:20.485Z,96744.00
2019-05-11T23:40:50.789Z,96736.00
2019-05-11T23:43:21.134Z,96734.00
2019-05-11T23:45:51.438Z,96731.00
2019-05-11T23:48:22.773Z,96739.00
2019-05-11T23:50:53.146Z,96732.00
2019-05-11T23:53:23.474Z,96728.00
2019-05-11T23:55:53.784Z,96730.00
2019-05-11T23:58:24.109Z,96725.00
